createdAt,value
2019-01-11T00:02:17.918Z,11.43
2019-01-11T00:05:06.961Z,10.17
2019-01-11T00:07:55.247Z,11.47
2019-01-11T00:10:43.516Z,12.53
2019-01-11T00:13:31.988Z,11.67
2019-01-11T00:16:20.222Z,11.53
2019-01-11T00:19:08.637Z,11.47
2019-01-11T00:21:56.801Z,11.87
2019-01-11T00:24:45.075Z,12.50
2019-01-11T00:27:33.144Z,15.83
2019-01-11T00:30:21.214Z,14.57
2019-01-11T00:33:09.855Z,14.37
2019-01-11T00:35:58.884Z,13.33
2019-01-11T00:38:46.974Z,11.07
2019-01-11T00:41:35.108Z,14.20
2019-01-11T00:44:23.356Z,15.37
2019-01-11T00:47:11.468Z,10.33
2019-01-11T00:49:59.508Z,12.10
2019-01-11T00:52:47.746Z,13.80
2019-01-11T00:55:36.168Z,11.17
2019-01-11T00:58:24.250Z,12.47
2019-01-11T01:01:13.264Z,13.77
2019-01-11T01:04:01.087Z,12.87
2019-01-11T01:06:49.314Z,13.10
2019-01-11T01:09:39.604Z,13.97
2019-01-11T01:12:27.890Z,13.20
2019-01-11T01:15:16.540Z,13.60
2019-01-11T01:18:04.951Z,12.83
2019-01-11T01:20:53.019Z,13.40
2019-01-11T01:23:41.354Z,11.27
2019-01-11T01:26:29.682Z,14.37
2019-01-11T01:29:17.856Z,14.10
2019-01-11T01:32:06.249Z,12.40
2019-01-11T01:34:56.428Z,15.80
2019-01-11T01:37:44.877Z,11.83
2019-01-11T01:40:33.042Z,13.00
2019-01-11T01:43:21.066Z,12.43
2019-01-11T01:46:08.612Z,14.27
2019-01-11T01:48:56.168Z,14.40
2019-01-11T01:51:44.296Z,10.80
2019-01-11T01:54:32.441Z,16.03
2019-01-11T01:57:20.341Z,14.77
2019-01-11T02:00:13.384Z,15.47
2019-01-11T02:03:01.312Z,14.33
2019-01-11T02:05:49.179Z,15.10
2019-01-11T02:08:37.187Z,13.27
2019-01-11T02:11:25.255Z,15.80
2019-01-11T02:14:13.139Z,14.23
2019-01-11T02:17:01.131Z,16.00
2019-01-11T02:19:50.140Z,13.10
2019-01-11T02:22:38.196Z,12.67
2019-01-11T02:25:26.092Z,12.43
2019-01-11T02:28:14.074Z,14.90
2019-01-11T02:31:02.199Z,12.93
2019-01-11T02:33:50.086Z,18.93
2019-01-11T02:36:38.152Z,16.03
2019-01-11T02:39:26.305Z,15.87
2019-01-11T02:42:13.827Z,14.70
2019-01-11T02:45:01.974Z,16.13
2019-01-11T02:47:49.843Z,14.60
2019-01-11T02:50:37.715Z,14.50
2019-01-11T02:53:25.892Z,15.60
2019-01-11T02:56:13.882Z,15.13
2019-01-11T02:59:02.940Z,14.70
2019-01-11T03:01:51.153Z,21.33
2019-01-11T03:04:39.359Z,14.83
2019-01-11T03:07:27.384Z,17.67
2019-01-11T03:10:17.789Z,16.03
2019-01-11T03:13:06.484Z,14.33
2019-01-11T03:15:57.240Z,16.03
2019-01-11T03:18:45.567Z,17.03
2019-01-11T03:21:33.576Z,16.83
2019-01-11T03:24:22.197Z,15.37
2019-01-11T03:27:10.291Z,19.50
2019-01-11T03:29:58.658Z,17.20
2019-01-11T03:32:46.943Z,16.07
2019-01-11T03:35:35.048Z,16.23
2019-01-11T03:38:25.203Z,13.60
2019-01-11T03:41:13.501Z,16.67
2019-01-11T03:44:02.143Z,13.67
2019-01-11T03:46:50.381Z,15.60
2019-01-11T03:49:38.501Z,15.60
2019-01-11T03:52:26.842Z,18.20
2019-01-11T03:55:16.442Z,18.67
2019-01-11T03:58:04.712Z,15.80
2019-01-11T04:00:52.742Z,14.50
2019-01-11T04:03:41.042Z,16.50
2019-01-11T04:06:28.822Z,16.37
2019-01-11T04:09:18.368Z,14.67
2019-01-11T04:12:06.936Z,17.00
2019-01-11T04:14:56.175Z,17.60
2019-01-11T04:17:48.050Z,15.97
2019-01-11T04:20:35.932Z,18.37
2019-01-11T04:23:24.010Z,18.63
2019-01-11T04:26:13.279Z,17.43
2019-01-11T04:29:01.329Z,18.43
2019-01-11T04:31:49.663Z,16.07
2019-01-11T04:34:37.910Z,18.47
2019-01-11T04:37:27.260Z,17.07
2019-01-11T04:40:17.832Z,14.60
2019-01-11T04:43:06.210Z,21.00
2019-01-11T04:45:54.291Z,19.83
2019-01-11T04:48:42.377Z,14.13
2019-01-11T04:51:31.045Z,15.73
2019-01-11T04:54:19.605Z,15.53
2019-01-11T04:57:07.409Z,16.93
2019-01-11T04:59:56.365Z,16.03
2019-01-11T05:02:45.105Z,19.23
2019-01-11T05:05:33.516Z,16.03
2019-01-11T05:08:21.562Z,12.73
2019-01-11T05:11:09.643Z,15.30
2019-01-11T05:13:58.568Z,15.07
2019-01-11T05:16:46.658Z,16.17
2019-01-11T05:19:34.973Z,15.13
2019-01-11T05:22:22.805Z,14.17
2019-01-11T05:25:11.780Z,13.47
2019-01-11T05:27:59.861Z,15.50
2019-01-11T05:30:48.060Z,15.40
2019-01-11T05:33:36.447Z,15.43
2019-01-11T05:36:24.725Z,14.70
2019-01-11T05:39:13.065Z,16.00
2019-01-11T05:42:01.094Z,15.37
2019-01-11T05:44:49.626Z,16.07
2019-01-11T05:47:37.406Z,16.50
2019-01-11T05:50:25.767Z,17.80
2019-01-11T05:53:13.792Z,14.57
2019-01-11T05:56:07.414Z,15.43
2019-01-11T05:59:06.554Z,14.37
2019-01-11T06:01:54.649Z,15.90
2019-01-11T06:04:48.063Z,15.83
2019-01-11T06:07:56.672Z,15.80
2019-01-11T06:10:44.891Z,15.97
2019-01-11T06:13:33.280Z,19.90
2019-01-11T06:16:21.596Z,16.30
2019-01-11T06:19:09.939Z,16.53
2019-01-11T06:21:57.912Z,16.43
2019-01-11T06:24:46.390Z,15.70
2019-01-11T06:27:35.542Z,16.60
2019-01-11T06:30:23.875Z,14.23
2019-01-11T06:33:11.739Z,12.87
2019-01-11T06:35:59.845Z,16.17
2019-01-11T06:38:47.911Z,16.70
2019-01-11T06:41:43.321Z,17.37
2019-01-11T06:44:31.461Z,18.70
2019-01-11T06:47:19.581Z,19.00
2019-01-11T06:50:10.551Z,14.97
2019-01-11T06:52:58.929Z,16.50
2019-01-11T06:55:47.038Z,16.73
2019-01-11T06:58:35.534Z,15.53
2019-01-11T07:01:23.886Z,17.03
2019-01-11T07:04:11.925Z,15.00
2019-01-11T07:07:00.234Z,17.77
2019-01-11T07:09:48.777Z,15.57
2019-01-11T07:12:37.129Z,18.97
2019-01-11T07:15:25.726Z,16.50
2019-01-11T07:18:14.101Z,14.37
2019-01-11T07:21:02.173Z,16.00
2019-01-11T07:23:50.240Z,14.97
2019-01-11T07:26:38.661Z,17.90
2019-01-11T07:29:26.884Z,19.73
2019-01-11T07:32:14.620Z,19.23
2019-01-11T07:35:03.032Z,15.80
2019-01-11T07:37:51.611Z,16.90
2019-01-11T07:40:39.751Z,16.60
2019-01-11T07:43:28.010Z,14.97
2019-01-11T07:46:16.342Z,16.00
2019-01-11T07:49:04.993Z,17.87
2019-01-11T07:51:55.210Z,14.27
2019-01-11T07:54:43.233Z,16.53
2019-01-11T07:57:32.269Z,14.07
2019-01-11T08:00:22.752Z,17.70
2019-01-11T08:03:10.793Z,16.07
2019-01-11T08:06:00.604Z,18.20
2019-01-11T08:08:48.835Z,14.93
2019-01-11T08:11:37.259Z,16.63
2019-01-11T08:14:25.730Z,19.13
2019-01-11T08:17:14.980Z,16.23
2019-01-11T08:20:06.467Z,18.20
2019-01-11T08:22:54.690Z,18.23
2019-01-11T08:25:42.767Z,18.23
2019-01-11T08:28:32.411Z,15.43
2019-01-11T08:31:20.474Z,17.53
2019-01-11T08:34:08.845Z,17.43
2019-01-11T08:36:56.892Z,15.10
2019-01-11T08:39:44.975Z,16.37
2019-01-11T08:42:33.360Z,17.80
2019-01-11T08:45:21.527Z,15.67
2019-01-11T08:48:09.980Z,16.43
2019-01-11T08:51:02.631Z,15.47
2019-01-11T08:53:48.042Z,17.93
2019-01-11T08:56:36.459Z,17.63
2019-01-11T08:59:24.642Z,13.13
2019-01-11T09:02:12.953Z,13.50
2019-01-11T09:05:01.265Z,13.90
2019-01-11T09:07:49.613Z,15.97
2019-01-11T09:10:38.134Z,16.97
2019-01-11T09:13:26.308Z,16.63
2019-01-11T09:16:20.502Z,15.07
2019-01-11T09:19:06.030Z,13.70
2019-01-11T09:21:54.278Z,15.50
2019-01-11T09:24:42.338Z,13.63
2019-01-11T09:27:30.139Z,14.90
2019-01-11T09:30:20.236Z,12.00
2019-01-11T09:33:08.390Z,16.93
2019-01-11T09:35:56.405Z,13.30
2019-01-11T09:38:44.993Z,13.73
2019-01-11T09:41:33.679Z,15.93
2019-01-11T09:44:21.672Z,14.20
2019-01-11T09:47:09.966Z,13.07
2019-01-11T09:49:58.054Z,15.17
2019-01-11T09:52:47.168Z,19.27
2019-01-11T09:55:37.757Z,14.33
2019-01-11T09:58:25.938Z,15.73
2019-01-11T10:01:15.119Z,18.23
2019-01-11T10:04:03.451Z,15.30
2019-01-11T10:06:57.679Z,14.87
2019-01-11T10:09:45.753Z,14.20
2019-01-11T10:12:33.890Z,14.83
2019-01-11T10:15:22.304Z,16.03
2019-01-11T10:18:10.398Z,16.30
2019-01-11T10:20:58.463Z,15.60
2019-01-11T10:23:46.515Z,14.83
2019-01-11T10:26:34.770Z,13.50
2019-01-11T10:29:22.587Z,15.37
2019-01-11T10:32:10.972Z,16.03
2019-01-11T10:34:59.933Z,15.90
2019-01-11T10:37:48.323Z,16.40
2019-01-11T10:40:36.389Z,17.60
2019-01-11T10:43:24.695Z,16.77
2019-01-11T10:46:33.288Z,17.60
2019-01-11T10:49:21.658Z,14.43
2019-01-11T10:52:09.608Z,18.27
2019-01-11T10:54:57.870Z,11.70
2019-01-11T10:57:46.516Z,14.00
2019-01-11T11:00:37.138Z,14.70
2019-01-11T11:03:25.161Z,14.60
2019-01-11T11:06:14.873Z,16.70
2019-01-11T11:09:04.526Z,15.37
2019-01-11T11:11:52.542Z,13.03
2019-01-11T11:14:40.693Z,14.13
2019-01-11T11:17:29.002Z,16.60
2019-01-11T11:20:19.045Z,15.90
2019-01-11T11:23:07.584Z,17.60
2019-01-11T11:25:55.696Z,15.63
2019-01-11T11:28:43.866Z,14.70
2019-01-11T11:31:31.806Z,14.90
2019-01-11T11:34:29.497Z,16.97
2019-01-11T11:37:18.764Z,17.87
2019-01-11T11:40:07.611Z,18.07
2019-01-11T11:42:56.144Z,15.80
2019-01-11T11:45:46.033Z,18.00
2019-01-11T11:48:33.977Z,15.80
2019-01-11T11:51:22.099Z,15.47
2019-01-11T11:54:10.521Z,13.40
2019-01-11T11:56:59.010Z,18.00
2019-01-11T11:59:47.320Z,15.87
2019-01-11T12:02:35.522Z,18.13
2019-01-11T12:05:23.810Z,17.10
2019-01-11T12:08:11.646Z,16.77
2019-01-11T12:11:00.046Z,18.53
2019-01-11T12:13:48.053Z,15.00
2019-01-11T12:16:36.235Z,15.93
2019-01-11T12:19:24.435Z,14.07
2019-01-11T12:22:13.075Z,16.37
2019-01-11T12:25:01.803Z,16.67
2019-01-11T12:27:50.194Z,15.87
2019-01-11T12:30:38.067Z,16.73
2019-01-11T12:33:26.291Z,16.77
2019-01-11T12:36:14.698Z,15.93
2019-01-11T12:39:02.776Z,19.40
2019-01-11T12:41:51.156Z,17.00
2019-01-11T12:44:39.567Z,17.33
2019-01-11T12:47:27.774Z,18.97
2019-01-11T12:50:26.476Z,18.83
2019-01-11T12:53:14.951Z,18.27
2019-01-11T12:56:03.197Z,16.47
2019-01-11T12:58:51.688Z,15.00
2019-01-11T13:01:39.570Z,17.07
2019-01-11T13:04:27.578Z,17.33
2019-01-11T13:07:16.169Z,14.50
2019-01-11T13:10:04.687Z,13.10
2019-01-11T13:12:52.702Z,11.47
2019-01-11T13:15:40.837Z,12.23
2019-01-11T13:18:28.788Z,15.33
2019-01-11T13:21:16.941Z,13.87
2019-01-11T13:24:05.752Z,15.20
2019-01-11T13:26:53.790Z,13.97
2019-01-11T13:29:41.833Z,14.53
2019-01-11T13:32:30.015Z,14.93
2019-01-11T13:35:18.122Z,13.73
2019-01-11T13:38:06.484Z,15.70
2019-01-11T13:40:54.579Z,16.53
2019-01-11T13:43:43.071Z,16.20
2019-01-11T13:46:30.900Z,15.47
2019-01-11T13:49:19.190Z,14.10
2019-01-11T13:52:07.512Z,13.37
2019-01-11T13:54:55.996Z,16.60
2019-01-11T13:57:44.184Z,15.17
2019-01-11T14:00:32.503Z,13.63
2019-01-11T14:03:20.704Z,18.17
2019-01-11T14:06:08.959Z,15.37
2019-01-11T14:08:56.975Z,12.50
2019-01-11T14:11:45.441Z,14.77
2019-01-11T14:14:33.636Z,16.13
2019-01-11T14:17:22.135Z,16.57
2019-01-11T14:20:10.707Z,17.33
2019-01-11T14:22:59.051Z,16.70
2019-01-11T14:25:47.440Z,15.07
2019-01-11T14:28:35.229Z,16.27
2019-01-11T14:31:23.524Z,17.40
2019-01-11T14:34:11.938Z,17.20
2019-01-11T14:37:00.523Z,16.00
2019-01-11T14:39:48.605Z,18.93
2019-01-11T14:42:37.354Z,19.93
2019-01-11T14:45:25.875Z,18.43
2019-01-11T14:48:14.195Z,18.73
2019-01-11T14:51:02.733Z,21.80
2019-01-11T14:53:51.170Z,17.63
2019-01-11T14:56:39.278Z,17.83
2019-01-11T14:59:27.497Z,19.97
2019-01-11T15:02:15.538Z,17.53
2019-01-11T15:05:04.258Z,18.13
2019-01-11T15:07:52.683Z,17.93
2019-01-11T15:10:40.902Z,20.13
2019-01-11T15:13:29.194Z,17.93
2019-01-11T15:16:17.543Z,21.00
2019-01-11T15:19:05.858Z,20.97
2019-01-11T15:21:54.175Z,18.40
2019-01-11T15:24:42.285Z,20.17
2019-01-11T15:27:30.305Z,19.67
2019-01-11T15:30:26.144Z,19.80
2019-01-11T15:33:15.622Z,20.07
2019-01-11T15:36:04.417Z,20.20
2019-01-11T15:38:52.802Z,19.77
2019-01-11T15:41:41.415Z,18.80
2019-01-11T15:44:29.704Z,20.37
2019-01-11T15:47:18.014Z,20.27
2019-01-11T15:50:08.281Z,18.80
2019-01-11T15:52:56.898Z,21.50
2019-01-11T15:55:45.178Z,18.73
2019-01-11T15:58:33.613Z,20.80
2019-01-11T16:01:21.671Z,21.37
2019-01-11T16:04:09.746Z,21.30
2019-01-11T16:06:58.245Z,19.07
2019-01-11T16:10:00.945Z,22.23
2019-01-11T16:13:19.824Z,23.60
2019-01-11T16:16:40.106Z,23.00
2019-01-11T16:19:29.608Z,21.10
2019-01-11T16:22:17.959Z,22.93
2019-01-11T16:25:06.963Z,22.83
2019-01-11T16:27:55.547Z,24.83
2019-01-11T16:30:43.736Z,20.83
2019-01-11T16:33:31.974Z,20.37
2019-01-11T16:36:20.527Z,23.70
2019-01-11T16:39:09.750Z,23.30
2019-01-11T16:41:58.121Z,26.07
2019-01-11T16:44:46.174Z,22.67
2019-01-11T16:47:38.547Z,23.60
2019-01-11T16:50:26.798Z,25.10
2019-01-11T16:53:14.978Z,22.60
2019-01-11T16:56:03.173Z,20.97
2019-01-11T16:58:51.273Z,24.17
2019-01-11T17:01:39.813Z,22.50
2019-01-11T17:04:28.283Z,22.33
2019-01-11T17:07:16.692Z,21.63
2019-01-11T17:10:07.312Z,25.20
2019-01-11T17:12:55.524Z,22.80
2019-01-11T17:15:43.866Z,21.23
2019-01-11T17:18:31.990Z,18.53
2019-01-11T17:21:20.441Z,18.70
2019-01-11T17:24:08.665Z,20.53
2019-01-11T17:26:56.890Z,18.70
2019-01-11T17:29:47.248Z,19.23
2019-01-11T17:32:35.730Z,18.63
2019-01-11T17:35:24.098Z,18.13
2019-01-11T17:38:12.285Z,19.97
2019-01-11T17:41:09.749Z,18.63
2019-01-11T17:43:58.032Z,19.63
2019-01-11T17:46:46.431Z,21.40
2019-01-11T17:49:34.521Z,22.63
2019-01-11T17:52:22.576Z,23.60
2019-01-11T17:55:10.626Z,23.50
2019-01-11T17:57:58.879Z,23.87
2019-01-11T18:00:46.737Z,27.33
2019-01-11T18:03:35.424Z,21.03
2019-01-11T18:06:24.793Z,23.67
2019-01-11T18:09:13.112Z,27.47
2019-01-11T18:12:01.206Z,28.17
2019-01-11T18:14:49.486Z,27.93
2019-01-11T18:17:37.389Z,29.83
2019-01-11T18:20:28.107Z,27.53
2019-01-11T18:23:16.171Z,29.00
2019-01-11T18:26:04.383Z,27.27
2019-01-11T18:28:52.754Z,26.77
2019-01-11T18:31:40.551Z,24.00
2019-01-11T18:34:28.680Z,18.43
2019-01-11T18:37:17.445Z,20.90
2019-01-11T18:40:07.681Z,22.13
2019-01-11T18:42:56.094Z,23.70
2019-01-11T18:45:44.773Z,23.43
2019-01-11T18:48:32.733Z,22.13
2019-01-11T18:51:22.383Z,19.87
2019-01-11T18:54:11.758Z,21.67
2019-01-11T18:57:00.415Z,21.90
2019-01-11T18:59:50.488Z,28.27
2019-01-11T19:02:38.535Z,22.20
2019-01-11T19:05:27.998Z,24.27
2019-01-11T19:08:16.251Z,25.40
2019-01-11T19:11:05.107Z,25.67
2019-01-11T19:13:54.325Z,24.33
2019-01-11T19:16:42.675Z,21.17
2019-01-11T19:19:31.093Z,22.43
2019-01-11T19:22:19.150Z,25.70
2019-01-11T19:25:09.416Z,22.37
2019-01-11T19:28:16.909Z,22.63
2019-01-11T19:31:05.025Z,22.67
2019-01-11T19:33:53.315Z,19.83
2019-01-11T19:36:41.602Z,20.23
2019-01-11T19:39:30.087Z,23.60
2019-01-11T19:42:18.501Z,20.00
2019-01-11T19:45:08.363Z,19.50
2019-01-11T19:47:56.642Z,21.00
2019-01-11T19:50:45.024Z,18.37
2019-01-11T19:53:33.076Z,20.77
2019-01-11T19:56:21.734Z,18.33
2019-01-11T19:59:09.829Z,20.57
2019-01-11T20:01:57.965Z,19.07
2019-01-11T20:04:46.311Z,17.97
2019-01-11T20:07:34.783Z,19.50
2019-01-11T20:10:28.808Z,21.50
2019-01-11T20:13:17.781Z,18.93
2019-01-11T20:16:06.394Z,18.17
2019-01-11T20:18:54.825Z,18.70
2019-01-11T20:21:43.000Z,22.47
2019-01-11T20:24:31.168Z,21.77
2019-01-11T20:27:19.735Z,20.87
2019-01-11T20:30:09.172Z,21.87
2019-01-11T20:32:57.289Z,19.43
2019-01-11T20:35:45.666Z,23.93
2019-01-11T20:38:34.164Z,21.20
2019-01-11T20:41:22.619Z,21.57
2019-01-11T20:44:10.661Z,22.03
2019-01-11T20:46:58.736Z,27.90
2019-01-11T20:49:47.106Z,27.03
2019-01-11T20:52:35.079Z,23.97
2019-01-11T20:55:23.413Z,24.27
2019-01-11T20:58:11.933Z,25.20
2019-01-11T21:01:00.188Z,23.53
2019-01-11T21:03:48.497Z,26.80
2019-01-11T21:06:36.547Z,25.77
2019-01-11T21:09:24.713Z,31.80
2019-01-11T21:12:12.705Z,25.53
2019-01-11T21:15:00.717Z,26.93
2019-01-11T21:17:48.886Z,23.83
2019-01-11T21:20:38.026Z,25.97
2019-01-11T21:23:26.434Z,27.60
2019-01-11T21:26:14.596Z,27.73
2019-01-11T21:55:45.024Z,21.93
2019-01-11T21:58:33.354Z,15.57
2019-01-11T22:01:21.163Z,17.37
2019-01-11T22:04:09.543Z,17.17
2019-01-11T22:06:57.647Z,17.27
2019-01-11T22:09:46.286Z,14.80
2019-01-11T22:12:34.220Z,21.43
2019-01-11T22:25:14.223Z,15.33
2019-01-11T22:28:02.382Z,15.47
2019-01-11T22:30:51.835Z,17.73
2019-01-11T22:33:39.710Z,20.93
2019-01-11T22:36:27.849Z,19.90
2019-01-11T22:39:15.519Z,23.60
2019-01-11T22:42:03.925Z,20.97
2019-01-11T22:44:52.008Z,24.00
2019-01-11T22:47:39.544Z,24.40
2019-01-11T22:50:27.694Z,23.30
2019-01-11T22:53:15.958Z,27.37
2019-01-11T22:56:03.682Z,24.50
2019-01-11T22:58:51.417Z,25.07
2019-01-11T23:01:53.772Z,27.10
2019-01-11T23:04:41.833Z,31.10
2019-01-11T23:07:50.341Z,24.87
2019-01-11T23:11:24.125Z,26.87
2019-01-11T23:14:12.271Z,26.43
2019-01-11T23:17:13.611Z,30.07
2019-01-11T23:20:01.487Z,29.57
2019-01-11T23:22:49.255Z,30.23
2019-01-11T23:25:37.341Z,30.40
2019-01-11T23:28:26.179Z,29.50
2019-01-11T23:31:14.332Z,29.20
2019-01-11T23:34:01.772Z,27.57
2019-01-11T23:36:49.294Z,29.63
2019-01-11T23:39:37.372Z,28.33
2019-01-11T23:42:25.709Z,29.40
2019-01-11T23:45:14.263Z,32.27
2019-01-11T23:48:02.299Z,27.80
2019-01-11T23:50:50.148Z,29.93
2019-01-11T23:53:37.975Z,27.27
2019-01-11T23:56:25.533Z,29.53
2019-01-11T23:59:13.568Z,28.50
